createdAt,value
2022-11-03T00:00:49.691Z,9.75
2022-11-03T00:03:52.477Z,8.55
2022-11-03T00:06:55.996Z,8.73
2022-11-03T00:10:00.404Z,9.15
2022-11-03T00:13:03.374Z,8.45
2022-11-03T00:16:07.323Z,7.93
2022-11-03T00:19:11.291Z,7.22
2022-11-03T00:22:14.090Z,7.32
2022-11-03T00:25:18.421Z,7.72
2022-11-03T00:28:21.198Z,8.82
2022-11-03T00:31:26.279Z,8.23
2022-11-03T00:34:29.047Z,10.73
2022-11-03T00:37:31.820Z,9.60
2022-11-03T00:40:35.974Z,8.27
2022-11-03T00:43:38.903Z,7.85
2022-11-03T00:46:41.718Z,8.60
2022-11-03T00:49:44.487Z,9.25
2022-11-03T00:52:47.251Z,8.18
2022-11-03T00:55:51.906Z,8.13
2022-11-03T00:58:56.004Z,7.68
2022-11-03T01:01:58.864Z,9.23
2022-11-03T01:05:19.122Z,7.10
2022-11-03T01:08:23.754Z,6.90
2022-11-03T01:11:46.480Z,7.70
2022-11-03T01:14:50.883Z,9.05
2022-11-03T01:17:53.667Z,7.75
2022-11-03T01:20:57.173Z,8.27
2022-11-03T01:24:02.417Z,7.20
2022-11-03T01:27:06.551Z,8.05
2022-11-03T01:30:10.154Z,6.72
2022-11-03T01:33:12.940Z,7.68
2022-11-03T01:36:16.806Z,7.88
2022-11-03T01:39:21.036Z,6.78
2022-11-03T01:42:25.306Z,8.77
2022-11-03T01:45:28.091Z,8.55
2022-11-03T01:48:31.904Z,8.07
2022-11-03T01:51:37.524Z,7.30
2022-11-03T01:54:43.830Z,8.25
2022-11-03T01:57:55.396Z,7.05
2022-11-03T02:01:01.111Z,7.70
2022-11-03T02:04:10.758Z,7.43
2022-11-03T02:07:18.993Z,8.52
2022-11-03T02:10:22.234Z,7.03
2022-11-03T02:13:28.100Z,6.28
2022-11-03T02:16:33.622Z,6.97
2022-11-03T02:19:41.602Z,6.93
2022-11-03T02:23:09.507Z,7.18
2022-11-03T02:26:16.540Z,6.80
2022-11-03T02:29:19.323Z,6.00
2022-11-03T02:32:24.284Z,5.95
2022-11-03T02:35:32.988Z,5.80
2022-11-03T02:38:44.368Z,5.47
2022-11-03T02:41:50.186Z,6.93
2022-11-03T02:44:55.663Z,6.05
2022-11-03T02:48:00.767Z,7.00
2022-11-03T02:51:05.404Z,6.60
2022-11-03T02:54:12.864Z,5.60
2022-11-03T02:57:21.426Z,6.32
2022-11-03T03:00:24.443Z,5.90
2022-11-03T03:03:32.538Z,7.05
2022-11-03T03:06:40.443Z,6.82
2022-11-03T03:09:47.849Z,5.20
2022-11-03T03:12:56.018Z,5.93
2022-11-03T03:16:09.094Z,6.80
2022-11-03T03:19:22.344Z,6.57
2022-11-03T03:22:30.028Z,5.63
2022-11-03T03:25:35.304Z,6.30
2022-11-03T03:28:44.949Z,6.38
2022-11-03T03:31:51.200Z,5.93
2022-11-03T03:34:55.826Z,6.50
2022-11-03T03:38:02.930Z,6.90
2022-11-03T03:41:10.889Z,5.53
2022-11-03T03:44:17.368Z,5.45
2022-11-03T03:47:24.030Z,5.45
2022-11-03T03:50:30.531Z,5.80
2022-11-03T03:53:33.349Z,5.70
2022-11-03T03:56:41.866Z,4.57
2022-11-03T03:59:46.084Z,4.82
2022-11-03T04:02:48.842Z,6.10
2022-11-03T04:05:52.004Z,5.78
2022-11-03T04:08:54.813Z,5.75
2022-11-03T04:12:15.303Z,4.90
2022-11-03T04:15:37.408Z,5.43
2022-11-03T04:19:12.089Z,4.47
2022-11-03T04:22:17.515Z,5.10
2022-11-03T04:25:20.374Z,6.50
2022-11-03T04:28:23.263Z,5.00
2022-11-03T04:31:37.397Z,5.05
2022-11-03T04:34:40.276Z,5.47
2022-11-03T04:37:47.646Z,5.35
2022-11-03T04:40:55.530Z,6.93
2022-11-03T04:43:58.951Z,4.82
2022-11-03T04:47:03.172Z,5.10
2022-11-03T04:50:13.107Z,4.85
2022-11-03T04:53:17.947Z,5.13
2022-11-03T04:56:23.121Z,5.50
2022-11-03T04:59:26.147Z,4.72
2022-11-03T05:02:31.048Z,5.20
2022-11-03T05:05:33.860Z,5.35
2022-11-03T05:08:36.727Z,5.03
2022-11-03T05:11:40.983Z,4.32
2022-11-03T05:14:44.077Z,4.93
2022-11-03T05:17:48.312Z,6.22
2022-11-03T05:20:55.092Z,4.88
2022-11-03T05:24:02.431Z,5.53
2022-11-03T05:27:06.967Z,5.47
2022-11-03T05:30:16.025Z,5.10
2022-11-03T05:33:24.960Z,4.00
2022-11-03T05:36:30.811Z,4.50
2022-11-03T05:39:37.612Z,4.82
2022-11-03T05:42:45.047Z,5.07
2022-11-03T05:45:50.805Z,3.97
2022-11-03T05:48:54.979Z,4.28
2022-11-03T05:51:58.030Z,5.05
2022-11-03T05:55:03.262Z,4.85
2022-11-03T05:58:15.363Z,4.97
2022-11-03T06:01:21.837Z,4.22
2022-11-03T06:04:30.047Z,4.80
2022-11-03T06:07:33.413Z,4.55
2022-11-03T06:10:40.884Z,4.43
2022-11-03T06:13:43.859Z,5.30
2022-11-03T06:16:49.337Z,5.68
2022-11-03T06:19:55.280Z,7.10
2022-11-03T06:22:58.132Z,7.35
2022-11-03T06:26:03.144Z,7.95
2022-11-03T06:29:05.951Z,5.90
2022-11-03T06:32:13.637Z,8.10
2022-11-03T06:35:18.958Z,5.40
2022-11-03T06:38:24.956Z,8.25
2022-11-03T06:41:29.080Z,7.03
2022-11-03T06:44:31.883Z,5.80
2022-11-03T06:47:34.628Z,6.72
2022-11-03T06:50:44.642Z,5.85
2022-11-03T06:53:49.049Z,7.43
2022-11-03T06:56:52.178Z,8.55
2022-11-03T07:00:13.221Z,7.78
2022-11-03T07:03:25.246Z,10.65
2022-11-03T07:06:32.482Z,12.52
2022-11-03T07:09:35.251Z,12.23
2022-11-03T07:12:38.051Z,11.38
2022-11-03T07:15:41.613Z,7.82
2022-11-03T07:18:44.911Z,11.25
2022-11-03T07:21:51.281Z,11.27
2022-11-03T07:24:57.668Z,8.85
2022-11-03T07:28:04.683Z,7.70
2022-11-03T07:31:16.401Z,7.38
2022-11-03T07:34:23.066Z,9.10
2022-11-03T07:37:27.462Z,8.10
2022-11-03T07:40:34.011Z,13.80
2022-11-03T07:43:38.361Z,15.82
2022-11-03T07:46:41.213Z,14.85
2022-11-03T07:49:44.050Z,13.93
2022-11-03T07:52:48.204Z,10.02
2022-11-03T07:55:51.316Z,8.98
2022-11-03T07:58:56.919Z,10.00
2022-11-03T08:02:01.156Z,7.60
2022-11-03T08:05:04.493Z,8.43
2022-11-03T08:08:08.981Z,8.23
2022-11-03T08:14:20.057Z,8.82
2022-11-03T08:17:22.988Z,7.43
2022-11-03T08:20:25.860Z,8.30
2022-11-03T08:23:30.304Z,9.35
2022-11-03T08:26:33.388Z,9.20
2022-11-03T08:29:36.166Z,8.57
2022-11-03T08:32:38.966Z,8.13
2022-11-03T08:35:42.090Z,9.25
2022-11-03T08:38:46.286Z,10.73
2022-11-03T08:41:49.107Z,9.25
2022-11-03T08:44:51.967Z,9.27
2022-11-03T08:47:54.751Z,9.68
2022-11-03T08:50:57.644Z,10.60
2022-11-03T08:54:01.862Z,9.88
2022-11-03T08:57:04.847Z,10.55
2022-11-03T09:00:09.366Z,8.52
2022-11-03T09:03:12.196Z,10.02
2022-11-03T09:06:15.011Z,9.32
2022-11-03T09:12:43.942Z,9.70
2022-11-03T09:15:46.791Z,9.63
2022-11-03T09:18:49.711Z,8.95
2022-11-03T09:21:52.997Z,9.43
2022-11-03T09:24:57.114Z,9.10
2022-11-03T09:27:59.968Z,9.45
2022-11-03T09:31:03.200Z,8.32
2022-11-03T09:34:06.099Z,9.25
2022-11-03T09:37:09.101Z,8.40
2022-11-03T09:40:17.365Z,8.15
2022-11-03T09:43:20.305Z,9.18
2022-11-03T09:46:23.301Z,8.15
2022-11-03T09:49:26.619Z,8.48
2022-11-03T09:52:30.005Z,8.30
2022-11-03T09:55:35.042Z,8.10
2022-11-03T09:58:38.146Z,8.15
2022-11-03T10:01:41.984Z,8.55
2022-11-03T10:04:44.855Z,8.57
2022-11-03T10:07:47.909Z,7.72
2022-11-03T10:10:52.923Z,7.55
2022-11-03T10:13:57.586Z,7.75
2022-11-03T10:17:00.882Z,7.95
2022-11-03T10:20:04.351Z,7.75
2022-11-03T10:23:07.420Z,6.72
2022-11-03T10:26:13.319Z,8.25
2022-11-03T10:29:21.486Z,7.45
2022-11-03T10:32:31.162Z,8.02
2022-11-03T10:35:35.639Z,8.48
2022-11-03T10:38:38.439Z,7.43
2022-11-03T10:41:57.446Z,8.10
2022-11-03T10:45:13.068Z,7.50
2022-11-03T10:48:15.955Z,7.70
2022-11-03T10:51:18.815Z,8.93
2022-11-03T10:54:24.036Z,8.48
2022-11-03T10:57:29.677Z,7.63
2022-11-03T11:00:33.261Z,8.38
2022-11-03T11:03:41.868Z,6.78
2022-11-03T11:06:46.182Z,7.32
2022-11-03T11:09:50.229Z,8.02
2022-11-03T11:13:24.402Z,7.00
2022-11-03T11:16:50.709Z,7.53
2022-11-03T11:20:22.067Z,7.93
2022-11-03T11:23:49.319Z,7.88
2022-11-03T11:26:52.156Z,6.68
2022-11-03T11:29:56.449Z,7.22
2022-11-03T11:33:01.505Z,7.45
2022-11-03T11:36:29.920Z,7.53
2022-11-03T11:39:50.764Z,7.72
2022-11-03T11:43:26.218Z,7.35
2022-11-03T11:46:42.375Z,8.75
2022-11-03T11:49:45.183Z,8.52
2022-11-03T11:52:51.809Z,7.95
2022-11-03T11:55:57.228Z,6.47
2022-11-03T11:59:00.404Z,7.03
2022-11-03T12:02:06.261Z,6.38
2022-11-03T12:05:21.335Z,6.95
2022-11-03T12:08:29.996Z,8.13
2022-11-03T12:11:45.866Z,7.55
2022-11-03T12:14:50.186Z,7.30
2022-11-03T12:17:54.593Z,6.63
2022-11-03T12:20:58.595Z,7.53
2022-11-03T12:24:02.024Z,7.80
2022-11-03T12:27:18.236Z,7.28
2022-11-03T12:30:21.033Z,7.70
2022-11-03T12:33:25.232Z,6.82
2022-11-03T12:36:28.041Z,9.38
2022-11-03T12:39:30.870Z,9.50
2022-11-03T12:42:33.690Z,9.65
2022-11-03T12:45:36.534Z,10.25
2022-11-03T12:48:43.857Z,7.88
2022-11-03T12:51:46.708Z,9.57
2022-11-03T12:54:49.904Z,7.60
2022-11-03T12:57:52.749Z,8.13
2022-11-03T13:01:01.334Z,8.95
2022-11-03T13:04:06.743Z,8.27
2022-11-03T13:07:09.512Z,9.38
2022-11-03T13:10:12.394Z,8.63
2022-11-03T13:13:15.230Z,10.80
2022-11-03T13:16:18.026Z,10.43
2022-11-03T13:19:22.171Z,11.77
2022-11-03T13:22:25.047Z,13.40
2022-11-03T13:25:28.926Z,12.65
2022-11-03T13:28:31.795Z,12.02
2022-11-03T13:31:35.773Z,12.10
2022-11-03T13:34:40.010Z,13.18
2022-11-03T13:37:42.865Z,10.23
2022-11-03T13:41:07.053Z,9.60
2022-11-03T13:44:08.750Z,9.90
2022-11-03T13:47:12.001Z,10.68
2022-11-03T13:50:17.603Z,10.27
2022-11-03T14:00:08.017Z,12.63
2022-11-03T14:06:40.985Z,11.65
2022-11-03T14:09:43.795Z,13.95
2022-11-03T14:12:46.844Z,11.88
2022-11-03T14:15:49.686Z,12.43
2022-11-03T14:18:52.474Z,13.27
2022-11-03T14:21:56.668Z,12.50
2022-11-03T14:24:59.859Z,10.68
2022-11-03T14:28:02.803Z,12.00
2022-11-03T14:31:06.750Z,10.50
2022-11-03T14:34:09.555Z,11.38
2022-11-03T14:37:13.968Z,12.30
2022-11-03T14:40:48.218Z,13.25
2022-11-03T14:43:51.035Z,12.82
2022-11-03T14:46:53.812Z,13.27
2022-11-03T14:49:56.700Z,12.80
2022-11-03T14:53:00.885Z,13.52
2022-11-03T14:56:03.722Z,13.65
2022-11-03T14:59:06.518Z,13.85
2022-11-03T15:02:09.462Z,12.30
2022-11-03T15:05:32.289Z,11.88
2022-11-03T15:08:37.278Z,12.63
2022-11-03T15:11:40.047Z,13.32
2022-11-03T15:14:42.832Z,12.88
2022-11-03T15:17:45.781Z,12.88
2022-11-03T15:20:49.089Z,12.27
2022-11-03T15:27:16.022Z,12.88
2022-11-03T15:30:19.083Z,12.77
2022-11-03T15:33:22.001Z,13.00
2022-11-03T15:36:24.931Z,13.15
2022-11-03T15:39:29.840Z,13.43
2022-11-03T15:42:32.682Z,13.23
2022-11-03T15:45:35.920Z,13.48
2022-11-03T15:48:39.177Z,12.80
2022-11-03T15:51:42.037Z,12.23
2022-11-03T15:54:46.323Z,11.63
2022-11-03T15:57:49.218Z,10.90
2022-11-03T16:00:52.097Z,12.55
2022-11-03T16:03:54.925Z,12.70
2022-11-03T16:07:13.158Z,15.57
2022-11-03T16:10:17.307Z,13.50
2022-11-03T16:13:20.094Z,13.13
2022-11-03T16:16:22.934Z,11.95
2022-11-03T16:19:25.728Z,13.45
2022-11-03T16:22:28.569Z,13.18
2022-11-03T16:25:32.717Z,11.75
2022-11-03T16:28:35.551Z,12.48
2022-11-03T16:31:38.419Z,10.98
2022-11-03T16:34:41.215Z,11.90
2022-11-03T16:37:44.079Z,12.63
2022-11-03T16:40:48.253Z,11.98
2022-11-03T16:43:51.034Z,11.77
2022-11-03T16:46:53.949Z,12.38
2022-11-03T16:49:56.715Z,13.13
2022-11-03T16:52:59.547Z,11.57
2022-11-03T16:56:03.655Z,11.55
2022-11-03T16:59:06.493Z,12.82
2022-11-03T17:02:16.012Z,12.88
2022-11-03T17:05:21.208Z,14.73
2022-11-03T17:08:51.431Z,13.05
2022-11-03T17:11:48.555Z,14.15
2022-11-03T17:14:55.576Z,12.45
2022-11-03T17:17:59.986Z,12.38
2022-11-03T17:21:02.773Z,12.60
2022-11-03T17:24:06.647Z,12.40
2022-11-03T17:27:16.239Z,12.32
2022-11-03T17:30:21.993Z,11.20
2022-11-03T17:33:24.831Z,13.00
2022-11-03T17:36:28.000Z,12.73
2022-11-03T17:39:34.259Z,13.00
2022-11-03T17:42:38.733Z,11.63
2022-11-03T17:45:41.601Z,12.10
2022-11-03T17:48:44.367Z,11.65
2022-11-03T17:51:47.180Z,13.07
2022-11-03T17:54:50.409Z,12.45
2022-11-03T17:57:55.776Z,12.02
2022-11-03T18:00:58.759Z,12.32
2022-11-03T18:04:02.712Z,10.30
2022-11-03T18:07:18.611Z,10.52
2022-11-03T18:10:22.681Z,11.55
2022-11-03T18:13:34.229Z,11.18
2022-11-03T18:16:37.350Z,10.75
2022-11-03T18:19:40.511Z,10.70
2022-11-03T18:22:43.312Z,11.15
2022-11-03T18:25:46.137Z,10.32
2022-11-03T18:28:50.994Z,9.73
2022-11-03T18:31:53.860Z,9.23
2022-11-03T18:34:57.305Z,10.23
2022-11-03T18:38:00.231Z,10.00
2022-11-03T18:41:23.182Z,10.93
2022-11-03T18:44:29.237Z,9.98
2022-11-03T18:47:32.071Z,10.02
2022-11-03T18:50:35.248Z,8.80
2022-11-03T18:53:38.066Z,10.40
2022-11-03T18:56:40.965Z,11.50
2022-11-03T18:59:45.813Z,11.77
2022-11-03T19:02:48.646Z,11.38
2022-11-03T19:05:53.749Z,12.25
2022-11-03T19:08:59.506Z,13.05
2022-11-03T19:12:02.403Z,12.13
2022-11-03T19:15:07.702Z,13.57
2022-11-03T19:18:12.908Z,13.23
2022-11-03T19:21:17.385Z,13.80
2022-11-03T19:24:20.257Z,13.75
2022-11-03T19:27:26.558Z,15.07
2022-11-03T19:30:30.752Z,15.27
2022-11-03T19:33:33.580Z,14.23
2022-11-03T19:36:36.394Z,15.45
2022-11-03T19:39:41.920Z,13.95
2022-11-03T19:42:45.445Z,15.95
2022-11-03T19:45:49.579Z,17.73
2022-11-03T19:48:52.397Z,16.25
2022-11-03T19:51:55.501Z,17.00
2022-11-03T19:54:59.518Z,18.20
2022-11-03T19:58:08.681Z,17.20
2022-11-03T20:01:13.214Z,17.20
2022-11-03T20:04:16.060Z,19.85
2022-11-03T20:07:18.902Z,17.02
2022-11-03T20:10:21.689Z,18.13
2022-11-03T20:13:26.268Z,18.17
2022-11-03T20:16:31.678Z,16.70
2022-11-03T20:19:34.428Z,18.67
2022-11-03T20:22:37.253Z,19.88
2022-11-03T20:25:40.109Z,20.15
2022-11-03T20:28:43.013Z,20.38
2022-11-03T20:31:47.552Z,20.38
2022-11-03T20:34:50.465Z,20.77
2022-11-03T20:37:57.584Z,19.25
2022-11-03T20:41:04.303Z,18.52
2022-11-03T20:44:07.165Z,20.58
2022-11-03T20:47:16.304Z,16.88
2022-11-03T20:50:21.213Z,17.00
2022-11-03T20:53:25.585Z,17.20
2022-11-03T20:56:29.748Z,16.63
2022-11-03T20:59:34.714Z,16.98
2022-11-03T21:02:42.271Z,15.52
2022-11-03T21:05:45.353Z,15.43
2022-11-03T21:08:48.846Z,16.50
2022-11-03T21:11:53.335Z,18.63
2022-11-03T21:15:13.495Z,15.13
2022-11-03T21:18:35.427Z,17.50
2022-11-03T21:21:38.326Z,15.48
2022-11-03T21:24:43.370Z,16.13
2022-11-03T21:27:47.492Z,16.13
2022-11-03T21:30:52.097Z,12.93
2022-11-03T21:33:56.285Z,14.98
2022-11-03T21:36:59.138Z,12.90
2022-11-03T21:40:01.960Z,14.80
2022-11-03T21:43:22.204Z,14.93
2022-11-03T21:46:25.057Z,15.80
2022-11-03T21:49:44.281Z,16.50
2022-11-03T21:52:47.045Z,15.70
2022-11-03T21:55:50.562Z,16.30
2022-11-03T21:58:53.882Z,14.65
2022-11-03T22:01:56.947Z,15.57
2022-11-03T22:05:05.387Z,14.13
2022-11-03T22:08:11.237Z,15.00
2022-11-03T22:11:23.339Z,13.32
2022-11-03T22:14:28.976Z,13.30
2022-11-03T22:17:30.748Z,12.52
2022-11-03T22:20:54.219Z,13.20
2022-11-03T22:24:14.558Z,12.15
2022-11-03T22:27:17.381Z,12.60
2022-11-03T22:30:37.673Z,14.40
2022-11-03T22:34:00.854Z,12.40
2022-11-03T22:37:04.044Z,11.38
2022-11-03T22:40:26.033Z,12.10
2022-11-03T22:43:46.895Z,11.95
2022-11-03T22:46:49.660Z,11.20
2022-11-03T22:49:52.407Z,10.93
2022-11-03T22:52:56.537Z,11.52
2022-11-03T22:56:00.531Z,12.52
2022-11-03T22:59:03.421Z,11.57
2022-11-03T23:02:06.419Z,12.23
2022-11-03T23:05:09.540Z,12.15
2022-11-03T23:08:13.776Z,11.38
2022-11-03T23:11:19.670Z,11.10
2022-11-03T23:14:23.073Z,11.18
2022-11-03T23:17:45.837Z,11.63
2022-11-03T23:21:06.638Z,12.07
2022-11-03T23:24:28.408Z,10.13
2022-11-03T23:27:31.172Z,10.93
2022-11-03T23:30:33.939Z,10.00
2022-11-03T23:33:36.735Z,10.93
2022-11-03T23:36:39.610Z,10.75
2022-11-03T23:39:43.775Z,10.75
2022-11-03T23:42:46.702Z,9.32
2022-11-03T23:46:06.901Z,11.23
2022-11-03T23:49:09.949Z,11.05
2022-11-03T23:52:12.699Z,10.05
2022-11-03T23:55:17.006Z,11.85
2022-11-03T23:58:18.807Z,9.52
